Time;durP1;ratioP1;P1;durP2;ratioP2;P2;SDS_P1;SDS_P2;PMS_P1;PMS_P2;Temp;Humidity;BMP_temperature;BMP_pressure;BME280_temperature;BME280_humidity;BME280_pressure;Samples;Min_cycle;Max_cycle;Signal;HPM_P1;HPM_P2
2022/06/30 00:02:22;;;;;;;;;12.75;12.75;;;;;22.13;61.39;101119.22;5003533;28;8850;-66
2022/06/30 00:04:49;;;;;;;;;9.50;9.50;;;;;22.20;60.96;101117.06;5003849;28;8830;-66
2022/06/30 00:07:17;;;;;;;;;10.00;10.00;;;;;22.27;60.76;101116.00;5002173;28;8852;-65
2022/06/30 00:09:43;;;;;;;;;8.25;8.25;;;;;22.23;60.73;101109.41;5008304;28;8850;-67
2022/06/30 00:12:10;;;;;;;;;12.00;9.75;;;;;22.22;60.67;101111.31;5011324;28;8830;-66
2022/06/30 00:14:36;;;;;;;;;9.00;9.00;;;;;22.24;60.43;101105.56;5006815;28;8848;-67
2022/06/30 00:17:03;;;;;;;;;9.00;8.50;;;;;22.19;60.88;101101.69;5009065;28;8931;-66
2022/06/30 00:19:30;;;;;;;;;13.00;12.25;;;;;22.21;60.80;101106.94;5010318;28;8842;-66
2022/06/30 00:21:57;;;;;;;;;12.00;11.25;;;;;22.23;60.69;101102.00;5010679;28;8860;-66
2022/06/30 00:24:23;;;;;;;;;9.25;9.00;;;;;22.16;60.87;101102.25;5001485;28;8896;-66
2022/06/30 00:26:51;;;;;;;;;16.50;15.00;;;;;22.13;61.00;101102.75;5005095;28;9579;-67
2022/06/30 00:29:17;;;;;;;;;12.50;12.25;;;;;22.16;61.06;101099.50;5005741;28;8828;-66
2022/06/30 00:31:44;;;;;;;;;10.50;9.25;;;;;22.19;61.17;101098.13;5009931;28;9489;-67
2022/06/30 00:34:10;;;;;;;;;11.00;11.00;;;;;22.18;61.12;101088.25;5005180;28;8825;-66
2022/06/30 00:36:37;;;;;;;;;10.00;10.00;;;;;22.22;61.22;101089.38;5007048;28;8872;-66
2022/06/30 00:39:03;;;;;;;;;10.00;9.50;;;;;22.26;61.10;101086.94;5001257;28;8846;-66
2022/06/30 00:41:30;;;;;;;;;8.00;7.50;;;;;22.27;61.23;101081.16;5011971;28;8968;-66
2022/06/30 00:43:57;;;;;;;;;10.50;10.00;;;;;22.26;61.28;101078.72;5005869;28;8810;-66
2022/06/30 00:46:23;;;;;;;;;10.50;10.50;;;;;22.26;61.41;101078.72;5002271;28;8866;-66
2022/06/30 00:48:50;;;;;;;;;9.00;9.00;;;;;22.24;61.49;101078.13;5006589;28;8821;-67
2022/06/30 00:51:22;;;;;;;;;7.50;6.00;;;;;22.20;61.64;101075.09;5010432;28;8846;-67
2022/06/30 00:53:49;;;;;;;;;6.75;6.75;;;;;22.15;62.24;101078.63;5003933;28;8861;-67
2022/06/30 00:56:17;;;;;;;;;13.25;13.25;;;;;22.13;62.18;101080.00;5000236;28;8840;-66
2022/06/30 00:58:45;;;;;;;;;8.25;8.25;;;;;22.12;62.33;101076.41;5008933;28;8833;-66
2022/06/30 01:01:13;;;;;;;;;12.75;12.75;;;;;22.12;62.25;101070.06;5007020;28;8814;-67
2022/06/30 01:03:43;;;;;;;;;9.00;9.00;;;;;22.10;62.40;101069.53;5004767;28;8842;-66
2022/06/30 01:06:10;;;;;;;;;14.00;12.25;;;;;22.06;62.53;101068.41;5007306;28;8912;-67
2022/06/30 01:08:37;;;;;;;;;16.00;14.25;;;;;22.06;62.60;101063.75;5002056;28;8818;-66
2022/06/30 01:14:09;;;;;;;;;12.25;12.25;;;;;22.05;62.37;101066.78;4943712;28;8850;-67
2022/06/30 01:16:39;;;;;;;;;15.75;12.50;;;;;22.04;62.43;101054.13;4948176;28;8842;-66
2022/06/30 01:19:06;;;;;;;;;14.75;13.50;;;;;22.01;62.09;101057.44;4979365;28;8960;-66
2022/06/30 01:21:34;;;;;;;;;15.75;15.75;;;;;21.99;61.91;101063.16;5010319;28;9529;-66
2022/06/30 01:24:00;;;;;;;;;14.50;14.50;;;;;21.97;62.09;101066.19;5010116;28;8829;-66
2022/06/30 01:26:29;;;;;;;;;16.00;14.25;;;;;21.95;61.85;101071.06;5007593;28;8837;-65
2022/06/30 01:28:56;;;;;;;;;13.25;13.00;;;;;21.93;61.83;101069.72;5001611;28;8838;-65
2022/06/30 01:31:23;;;;;;;;;12.75;12.00;;;;;21.88;61.85;101073.25;5008829;28;8911;-66
2022/06/30 01:33:51;;;;;;;;;14.00;14.00;;;;;21.88;61.89;101075.16;5005995;28;8837;-66
2022/06/30 01:36:17;;;;;;;;;18.25;18.25;;;;;21.86;61.62;101080.06;4992319;28;8943;-66
2022/06/30 01:38:44;;;;;;;;;11.50;11.50;;;;;21.85;61.92;101072.94;5010875;28;8912;-66
2022/06/30 01:41:10;;;;;;;;;15.50;14.50;;;;;21.84;61.59;101080.34;5005775;28;8830;-66
2022/06/30 01:43:37;;;;;;;;;17.50;17.50;;;;;21.82;61.61;101070.72;5001669;28;8865;-65
2022/06/30 01:46:03;;;;;;;;;20.00;20.00;;;;;21.78;61.71;101067.69;5003385;28;9588;-66
2022/06/30 01:48:30;;;;;;;;;17.50;17.00;;;;;21.74;61.96;101061.06;5008948;28;8965;-67
2022/06/30 01:50:56;;;;;;;;;21.25;20.75;;;;;21.70;61.75;101058.03;5010132;28;8914;-66
2022/06/30 01:53:23;;;;;;;;;20.25;19.75;;;;;21.64;61.87;101050.88;4999619;28;8868;-66
2022/06/30 01:55:49;;;;;;;;;19.25;18.50;;;;;21.60;61.83;101068.13;5007844;28;8912;-66
2022/06/30 01:58:16;;;;;;;;;28.00;25.67;;;;;21.58;61.87;101062.88;5003209;28;8830;-66
2022/06/30 02:00:42;;;;;;;;;24.25;23.00;;;;;21.55;61.78;101068.88;4998679;28;8954;-66
2022/06/30 02:03:09;;;;;;;;;22.50;19.25;;;;;21.55;61.82;101059.84;5007687;28;8854;-66
2022/06/30 02:05:36;;;;;;;;;22.25;21.00;;;;;21.53;61.84;101060.09;4999369;28;8943;-65
2022/06/30 02:08:03;;;;;;;;;21.50;21.50;;;;;21.50;61.69;101071.56;5006189;28;9945;-66
2022/06/30 02:10:30;;;;;;;;;28.75;27.00;;;;;21.46;61.63;101062.22;5010142;28;8826;-67
2022/06/30 02:12:56;;;;;;;;;22.67;22.00;;;;;21.45;61.56;101064.16;5007998;28;8844;-66
2022/06/30 02:15:32;;;;;;;;;23.00;21.50;;;;;21.43;61.48;101065.47;4996342;28;8940;-67
2022/06/30 02:18:01;;;;;;;;;28.67;28.00;;;;;21.38;61.21;101062.72;5009355;28;8822;-66
2022/06/30 02:20:28;;;;;;;;;23.50;22.25;;;;;21.34;61.18;101062.41;5009685;28;9090;-67
2022/06/30 02:22:57;;;;;;;;;20.75;20.50;;;;;21.33;61.19;101066.25;5001411;28;8931;-66
2022/06/30 02:25:25;;;;;;;;;20.25;20.25;;;;;21.33;61.08;101070.88;4998994;28;8915;-66
2022/06/30 02:27:52;;;;;;;;;20.25;19.00;;;;;21.30;60.85;101060.41;5009271;28;8834;-67
2022/06/30 02:30:19;;;;;;;;;20.00;17.00;;;;;21.30;60.92;101054.94;5008657;28;8854;-66
2022/06/30 02:32:46;;;;;;;;;17.50;17.00;;;;;21.27;60.71;101061.78;5007254;28;8814;-67
2022/06/30 02:35:13;;;;;;;;;18.25;18.00;;;;;21.27;60.46;101060.94;5006917;28;8846;-66
2022/06/30 02:37:40;;;;;;;;;16.50;16.00;;;;;21.23;60.38;101061.47;5007688;28;8810;-66
2022/06/30 02:40:08;;;;;;;;;18.00;18.00;;;;;21.21;60.36;101060.91;5000368;28;8864;-66
2022/06/30 02:42:35;;;;;;;;;15.50;15.50;;;;;21.19;60.28;101054.03;5006790;28;8858;-67
2022/06/30 02:45:02;;;;;;;;;19.75;19.25;;;;;21.19;60.34;101063.09;5005254;28;8830;-66
2022/06/30 02:47:30;;;;;;;;;15.50;15.50;;;;;21.20;60.14;101064.72;5010116;28;8822;-66
2022/06/30 02:49:57;;;;;;;;;17.00;16.50;;;;;21.22;60.17;101058.97;4998285;28;8860;-65
2022/06/30 02:52:23;;;;;;;;;13.50;13.50;;;;;21.22;60.00;101050.75;5002758;28;9626;-66
2022/06/30 02:54:50;;;;;;;;;16.00;15.50;;;;;21.22;60.01;101048.03;5006337;28;8838;-66
2022/06/30 02:57:16;;;;;;;;;17.25;16.00;;;;;21.22;59.82;101042.56;5002942;28;8839;-66
2022/06/30 02:59:43;;;;;;;;;18.75;18.25;;;;;21.22;60.07;101054.31;5010602;28;8826;-66
2022/06/30 03:02:09;;;;;;;;;24.00;23.67;;;;;21.13;59.92;101080.53;5011772;28;8999;-67
2022/06/30 03:04:36;;;;;;;;;24.33;24.00;;;;;20.97;60.43;101062.31;5007786;28;8986;-66
2022/06/30 03:07:03;;;;;;;;;30.33;29.00;;;;;20.90;60.86;101078.94;5005470;28;9218;-66
2022/06/30 03:09:29;;;;;;;;;23.00;21.67;;;;;20.90;60.81;101067.16;5005352;28;9198;-66
2022/06/30 03:11:55;;;;;;;;;24.67;23.33;;;;;20.85;61.31;101064.34;5005310;28;9077;-67
2022/06/30 03:14:22;;;;;;;;;22.25;22.25;;;;;20.86;61.37;101069.56;5008220;28;9078;-66
2022/06/30 03:16:49;;;;;;;;;22.67;19.67;;;;;20.85;61.11;101050.69;5007832;28;8964;-67
2022/06/30 03:19:16;;;;;;;;;20.25;20.25;;;;;20.80;61.55;101062.41;5010667;28;8907;-66
2022/06/30 03:21:42;;;;;;;;;31.00;30.00;;;;;20.78;61.69;101070.03;5012078;28;8850;-66
2022/06/30 03:24:09;;;;;;;;;31.33;27.33;;;;;20.75;61.58;101059.63;5008350;28;9164;-66
2022/06/30 03:26:36;;;;;;;;;27.67;26.67;;;;;20.64;62.30;101045.00;5008759;28;9242;-66
2022/06/30 03:29:04;;;;;;;;;35.00;33.67;;;;;20.66;62.28;101069.34;5005435;28;8951;-66
2022/06/30 03:31:30;;;;;;;;;24.00;24.00;;;;;20.70;62.23;101065.00;5012599;28;9151;-66
2022/06/30 03:33:57;;;;;;;;;29.00;29.00;;;;;20.69;61.94;101061.44;5012636;28;8849;-66
2022/06/30 03:36:24;;;;;;;;;24.33;22.67;;;;;20.62;62.36;101044.44;4987584;28;9228;-66
2022/06/30 03:38:51;;;;;;;;;32.67;31.00;;;;;20.59;62.42;101061.34;4999492;28;9117;-66
2022/06/30 03:41:17;;;;;;;;;20.67;18.00;;;;;20.60;62.59;101043.84;5011420;28;9236;-67
2022/06/30 03:43:44;;;;;;;;;24.67;23.67;;;;;20.64;62.41;101045.00;5011026;28;9073;-67
2022/06/30 03:46:10;;;;;;;;;24.00;23.00;;;;;20.70;62.18;101048.59;5010224;28;8956;-66
2022/06/30 03:48:38;;;;;;;;;17.75;17.00;;;;;20.71;62.21;101042.06;5012185;28;8997;-65
2022/06/30 03:51:04;;;;;;;;;24.33;22.00;;;;;20.70;62.10;101051.34;4999353;28;8961;-66
2022/06/30 03:53:31;;;;;;;;;26.00;23.25;;;;;20.69;62.26;101046.94;5001728;28;8940;-65
2022/06/30 03:55:57;;;;;;;;;30.00;27.33;;;;;20.59;62.51;101044.94;5003310;28;8956;-66
2022/06/30 03:58:24;;;;;;;;;23.75;22.75;;;;;20.59;62.70;101042.19;5003809;28;8928;-66
2022/06/30 04:00:50;;;;;;;;;18.75;18.75;;;;;20.60;62.73;101040.28;5011501;28;8830;-67
2022/06/30 04:03:17;;;;;;;;;29.00;26.67;;;;;20.61;62.58;101041.94;5002141;28;8963;-67
2022/06/30 04:05:43;;;;;;;;;20.00;17.25;;;;;20.59;62.72;101031.25;4997999;28;9004;-66
2022/06/30 04:08:10;;;;;;;;;23.25;23.25;;;;;20.59;62.71;101034.00;5011130;28;8833;-66
2022/06/30 04:10:37;;;;;;;;;25.00;22.67;;;;;20.65;62.77;101043.06;4999665;28;8960;-66
2022/06/30 04:13:03;;;;;;;;;22.75;21.00;;;;;20.70;62.54;101043.97;5009202;28;8914;-65
2022/06/30 04:15:30;;;;;;;;;19.33;19.33;;;;;20.76;62.43;101035.81;5003359;28;8870;-66
2022/06/30 04:17:57;;;;;;;;;19.00;19.00;;;;;20.79;62.19;101046.25;5010636;28;8930;-66
2022/06/30 04:20:23;;;;;;;;;23.75;21.00;;;;;20.77;62.19;101037.47;5004539;28;8921;-67
2022/06/30 04:22:52;;;;;;;;;17.50;17.25;;;;;20.77;62.37;101042.94;5003098;28;8849;-66
2022/06/30 04:25:19;;;;;;;;;19.00;19.00;;;;;20.75;62.08;101037.72;5011578;28;8842;-65
2022/06/30 04:27:51;;;;;;;;;24.00;23.75;;;;;20.75;62.31;101043.19;5006679;28;8836;-65
2022/06/30 04:33:05;;;;;;;;;17.00;17.00;;;;;20.74;62.27;101036.06;5011576;28;8908;-65
2022/06/30 04:35:31;;;;;;;;;15.50;14.75;;;;;20.73;62.55;101037.97;5007550;28;8822;-65
2022/06/30 04:37:59;;;;;;;;;24.00;21.00;;;;;20.74;62.61;101036.91;5007890;28;8842;-65
2022/06/30 04:43:12;;;;;;;;;17.25;17.25;;;;;20.74;62.63;101042.38;5011732;28;8850;-65
2022/06/30 04:45:38;;;;;;;;;19.00;19.00;;;;;20.73;62.65;101037.97;5006250;28;8846;-65
2022/06/30 04:48:05;;;;;;;;;16.25;15.00;;;;;20.72;62.88;101041.78;5004924;28;8809;-65
2022/06/30 04:50:32;;;;;;;;;20.00;19.67;;;;;20.76;62.69;101041.28;5001610;28;8836;-65
2022/06/30 04:53:00;;;;;;;;;24.25;21.75;;;;;20.77;62.69;101042.94;4996729;28;8833;-65
2022/06/30 04:55:27;;;;;;;;;25.33;25.33;;;;;20.75;62.58;101048.69;5006622;28;8826;-65
2022/06/30 04:57:53;;;;;;;;;23.00;23.00;;;;;20.77;62.44;101045.66;5003537;28;9189;-65
2022/06/30 05:00:21;;;;;;;;;26.00;26.00;;;;;20.78;62.54;101055.53;5010812;28;8989;-65
2022/06/30 05:02:47;;;;;;;;;22.25;22.00;;;;;20.79;62.49;101055.28;5005973;28;9022;-65
2022/06/30 05:05:14;;;;;;;;;22.25;19.50;;;;;20.82;62.59;101049.28;5007530;28;8864;-65
2022/06/30 05:07:40;;;;;;;;;29.75;27.25;;;;;20.84;62.71;101054.50;5009149;28;9524;-66
2022/06/30 05:10:07;;;;;;;;;29.33;29.33;;;;;20.83;62.54;101059.16;5005899;28;8838;-65
2022/06/30 05:12:33;;;;;;;;;22.25;21.00;;;;;20.85;62.63;101062.44;5007907;28;9254;-65
2022/06/30 05:15:01;;;;;;;;;20.50;20.50;;;;;20.86;62.59;101055.88;5002280;28;9590;-65
2022/06/30 05:17:28;;;;;;;;;22.50;20.75;;;;;20.87;62.75;101054.00;5007039;28;8834;-65
2022/06/30 05:19:54;;;;;;;;;28.67;26.67;;;;;20.87;62.80;101057.56;5002992;28;8962;-65
2022/06/30 05:22:20;;;;;;;;;40.00;35.75;;;;;20.82;62.53;101071.16;5009051;28;8912;-65
2022/06/30 05:27:32;;;;;;;;;26.25;25.25;;;;;20.82;62.40;101065.69;5003072;28;9007;-65
2022/06/30 05:30:00;;;;;;;;;23.25;22.75;;;;;20.83;62.37;101061.91;5008739;28;9580;-66
2022/06/30 05:32:26;;;;;;;;;47.50;40.50;;;;;20.84;62.10;101076.41;5005604;28;8902;-65
2022/06/30 05:34:53;;;;;;;;;25.33;24.67;;;;;20.91;62.26;101060.63;5006336;28;9574;-65
2022/06/30 05:37:19;;;;;;;;;35.33;32.67;;;;;21.08;62.12;101072.28;5008416;28;9101;-65
2022/06/30 05:39:46;;;;;;;;;32.67;31.00;;;;;21.29;61.76;101080.69;5005742;28;9073;-66
2022/06/30 05:42:12;;;;;;;;;28.50;27.00;;;;;21.49;61.24;101083.63;5009392;28;9181;-66
2022/06/30 05:44:39;;;;;;;;;39.67;37.00;;;;;21.69;60.50;101078.31;5006301;28;8853;-66
2022/06/30 05:47:05;;;;;;;;;29.75;27.00;;;;;21.77;60.00;101060.56;4999396;28;9414;-66
2022/06/30 05:49:32;;;;;;;;;35.33;33.00;;;;;21.88;60.14;101075.16;5005611;28;8826;-66
2022/06/30 05:51:58;;;;;;;;;46.33;40.67;;;;;21.92;60.04;101079.84;5001580;28;9176;-66
2022/06/30 05:54:25;;;;;;;;;42.75;38.00;;;;;21.91;59.98;101080.91;5004175;28;9420;-66
2022/06/30 05:56:51;;;;;;;;;45.67;39.67;;;;;21.96;60.15;101077.41;5004197;28;9532;-66
2022/06/30 05:59:18;;;;;;;;;42.33;35.00;;;;;22.01;60.17;101082.91;5005807;28;9452;-66
2022/06/30 06:01:44;;;;;;;;;40.67;36.67;;;;;22.01;60.53;101077.44;4998227;28;9317;-66
2022/06/30 06:04:11;;;;;;;;;45.00;40.00;;;;;22.02;60.42;101078.25;5004658;28;9475;-66
2022/06/30 06:06:38;;;;;;;;;40.67;36.67;;;;;21.97;60.15;101070.84;5001871;28;9955;-66
2022/06/30 06:09:04;;;;;;;;;42.00;38.33;;;;;21.84;60.11;101074.88;5003949;28;9925;-65
2022/06/30 06:11:32;;;;;;;;;32.00;31.00;;;;;21.77;60.29;101076.19;5010167;28;9386;-66
2022/06/30 06:13:59;;;;;;;;;25.50;25.25;;;;;21.68;60.25;101082.16;5005705;28;9006;-65
2022/06/30 06:16:25;;;;;;;;;22.75;22.25;;;;;;;;4993185;28;9532;-66
2022/06/30 06:18:52;;;;;;;;;16.75;15.75;;;;;21.64;60.57;101077.47;4999345;28;8875;-66
2022/06/30 06:21:19;;;;;;;;;15.25;14.25;;;;;21.64;60.43;101056.38;4999358;28;8842;-65
2022/06/30 06:23:46;;;;;;;;;12.50;12.00;;;;;21.60;60.34;101068.94;5010006;28;8846;-66
2022/06/30 06:26:13;;;;;;;;;14.50;13.50;;;;;21.56;60.50;101076.03;5007591;28;8841;-66
2022/06/30 06:31:25;;;;;;;;;10.50;10.50;;;;;21.48;60.03;101084.72;5013377;28;9552;-65
2022/06/30 06:33:51;;;;;;;;;10.25;10.00;;;;;21.42;60.18;101099.44;5014289;28;8830;-66
2022/06/30 06:36:18;;;;;;;;;8.50;8.00;;;;;21.35;60.01;101102.41;5013722;28;8919;-66
2022/06/30 06:38:45;;;;;;;;;5.25;5.25;;;;;21.33;60.16;101110.06;5014155;28;8892;-68
2022/06/30 06:41:11;;;;;;;;;4.25;4.25;;;;;21.34;60.16;101088.97;4995951;28;8832;-65
2022/06/30 06:43:38;;;;;;;;;3.75;3.75;;;;;21.37;60.05;101088.44;5000986;28;8864;-66
2022/06/30 06:46:04;;;;;;;;;4.00;4.00;;;;;21.39;59.98;101084.38;5011529;28;8840;-65
2022/06/30 06:48:31;;;;;;;;;5.25;5.25;;;;;21.35;59.79;101085.13;5004808;28;8928;-65
2022/06/30 06:50:59;;;;;;;;;7.00;7.00;;;;;21.30;59.71;101093.28;4997853;28;8821;-65
2022/06/30 06:53:26;;;;;;;;;7.00;7.00;;;;;21.23;59.75;101091.59;4994645;28;8958;-66
2022/06/30 06:55:53;;;;;;;;;8.00;6.50;;;;;21.17;60.10;101098.09;5007867;28;8925;-67
2022/06/30 06:58:20;;;;;;;;;6.00;4.50;;;;;21.17;60.07;101106.31;5013696;28;8920;-67
2022/06/30 07:00:47;;;;;;;;;3.75;3.75;;;;;21.21;59.99;101110.19;4999128;28;8932;-67
2022/06/30 07:03:13;;;;;;;;;2.75;2.25;;;;;21.17;59.63;101116.44;4994088;28;8836;-67
2022/06/30 07:05:40;;;;;;;;;5.75;4.00;;;;;21.17;59.68;101122.72;4995980;28;9556;-65
2022/06/30 07:08:07;;;;;;;;;4.50;4.50;;;;;21.18;59.63;101129.84;4994042;28;8832;-65
2022/06/30 07:10:33;;;;;;;;;6.00;4.00;;;;;21.18;59.52;101134.50;4995524;28;9634;-66
2022/06/30 07:13:00;;;;;;;;;8.00;5.50;;;;;21.21;59.52;101137.56;4994128;28;8836;-66
2022/06/30 07:15:27;;;;;;;;;5.50;4.00;;;;;21.30;59.46;101139.81;4994709;28;8947;-65
2022/06/30 07:17:55;;;;;;;;;3.50;3.00;;;;;21.38;59.30;101142.13;4993677;28;8852;-67
2022/06/30 07:20:22;;;;;;;;;4.00;4.00;;;;;21.41;59.05;101145.19;5004895;28;8853;-67
2022/06/30 07:22:48;;;;;;;;;6.00;4.50;;;;;21.35;59.04;101150.84;5013638;28;8919;-66
2022/06/30 07:25:33;;;;;;;;;4.25;3.75;;;;;21.38;58.82;101151.16;5000874;28;9630;-66
2022/06/30 07:28:03;;;;;;;;;3.00;3.00;;;;;21.40;58.69;101154.50;4996314;28;8863;-67
2022/06/30 07:30:30;;;;;;;;;6.75;3.75;;;;;21.40;58.47;101156.41;5001018;28;8857;-67
2022/06/30 07:32:59;;;;;;;;;2.00;2.00;;;;;21.42;58.61;101156.97;4993966;28;8886;-67
2022/06/30 07:35:32;;;;;;;;;3.25;3.25;;;;;21.46;58.87;101161.66;4993942;28;8855;-66
2022/06/30 07:37:58;;;;;;;;;3.25;3.00;;;;;21.55;58.38;101161.19;4993705;28;8906;-66
2022/06/30 07:40:25;;;;;;;;;4.50;3.75;;;;;21.62;58.16;101173.59;4993187;28;8872;-67
2022/06/30 07:42:52;;;;;;;;;4.00;4.00;;;;;21.60;57.90;101178.53;4993844;28;8841;-65
2022/06/30 07:45:21;;;;;;;;;2.00;2.00;;;;;21.57;58.09;101181.78;5003961;28;8834;-67
2022/06/30 07:47:48;;;;;;;;;3.00;3.00;;;;;21.61;58.02;101185.66;5012862;28;8960;-65
2022/06/30 07:50:17;;;;;;;;;3.00;3.00;;;;;;;;5002560;28;8902;-65
2022/06/30 07:52:44;;;;;;;;;2.00;2.00;;;;;21.72;57.56;101190.13;4993493;28;8844;-68
2022/06/30 07:55:12;;;;;;;;;4.00;4.00;;;;;21.75;57.38;101185.22;5002876;28;8834;-67
2022/06/30 07:57:45;;;;;;;;;3.75;3.75;;;;;21.79;56.63;101178.13;4995444;28;8840;-67
2022/06/30 08:00:12;;;;;;;;;2.00;2.00;;;;;21.85;56.67;101185.31;4976063;28;8848;-65
2022/06/30 08:02:39;;;;;;;;;6.00;4.75;;;;;21.82;56.11;101186.66;4993156;28;8931;-67
2022/06/30 08:05:07;;;;;;;;;3.75;3.75;;;;;21.84;56.03;101189.16;5002336;28;8838;-67
2022/06/30 08:07:34;;;;;;;;;3.25;2.25;;;;;21.79;55.46;101183.59;5009726;28;8834;-65
2022/06/30 08:10:01;;;;;;;;;1.25;1.25;;;;;21.85;55.76;101188.06;5001553;28;9587;-65
2022/06/30 08:12:27;;;;;;;;;2.00;2.00;;;;;21.87;55.44;101186.69;5012654;28;8818;-65
2022/06/30 08:14:54;;;;;;;;;2.00;2.00;;;;;21.91;55.46;101197.97;5011174;28;8834;-64
2022/06/30 08:17:21;;;;;;;;;2.00;2.00;;;;;21.96;55.44;101187.88;5011926;28;8829;-65
2022/06/30 08:19:47;;;;;;;;;3.50;3.00;;;;;22.00;54.70;101184.59;4995171;28;8849;-65
2022/06/30 08:22:14;;;;;;;;;3.75;3.75;;;;;21.97;54.05;101184.03;4992977;28;8893;-65
2022/06/30 08:24:40;;;;;;;;;3.50;2.75;;;;;21.97;54.06;101186.78;4998031;28;8850;-65
2022/06/30 08:27:07;;;;;;;;;3.75;3.75;;;;;21.97;53.88;101191.44;5012176;28;8830;-66
2022/06/30 08:29:34;;;;;;;;;3.25;3.25;;;;;21.93;53.57;101201.28;5007142;28;8911;-66
2022/06/30 08:32:01;;;;;;;;;3.00;3.00;;;;;21.95;53.81;101193.59;4992757;28;8837;-65
2022/06/30 08:34:28;;;;;;;;;2.25;2.00;;;;;21.94;53.34;101203.75;4995482;28;8834;-66
2022/06/30 08:36:55;;;;;;;;;2.00;2.00;;;;;22.03;53.59;101200.53;4992359;28;8856;-64
2022/06/30 08:42:08;;;;;;;;;3.00;3.00;;;;;21.97;52.21;101194.19;5012314;28;8823;-65
2022/06/30 08:44:37;;;;;;;;;3.00;3.00;;;;;22.04;52.09;101202.16;5006627;28;9645;-66
2022/06/30 08:47:04;;;;;;;;;1.25;1.25;;;;;22.12;51.88;101197.06;4992571;28;8856;-65
2022/06/30 08:49:31;;;;;;;;;3.25;2.50;;;;;22.16;52.12;101202.84;5007129;28;8860;-65
2022/06/30 08:51:59;;;;;;;;;2.00;2.00;;;;;22.26;51.90;101210.34;4991537;28;8864;-65
2022/06/30 08:54:28;;;;;;;;;2.00;2.00;;;;;22.33;51.34;101209.03;4995956;28;8818;-66
2022/06/30 08:56:59;;;;;;;;;5.75;2.00;;;;;22.39;51.11;101215.38;5011784;28;8810;-66
2022/06/30 08:59:32;;;;;;;;;1.50;1.50;;;;;22.43;50.76;101209.06;5007042;28;8848;-67
2022/06/30 09:01:59;;;;;;;;;2.50;2.50;;;;;22.49;50.51;101214.63;4993149;28;8833;-67
2022/06/30 09:04:26;;;;;;;;;4.00;3.75;;;;;22.43;50.06;101206.34;4978161;28;8853;-65
2022/06/30 09:06:53;;;;;;;;;4.00;2.25;;;;;22.42;50.19;101210.19;5011268;28;8826;-66
2022/06/30 09:09:19;;;;;;;;;2.25;2.00;;;;;22.41;49.41;101208.53;5008384;28;8855;-66
2022/06/30 09:11:51;;;;;;;;;1.25;1.25;;;;;22.41;50.07;101207.72;5004932;28;8997;-66
2022/06/30 09:14:40;;;;;;;;;2.00;1.25;;;;;22.53;50.19;101207.50;4990442;28;8872;-65
2022/06/30 09:17:10;;;;;;;;;1.75;1.75;;;;;22.62;49.83;101200.44;4991318;28;9548;-66
2022/06/30 09:20:00;;;;;;;;;2.00;2.00;;;;;22.63;49.24;101200.16;4991620;28;9602;-66
2022/06/30 09:22:29;;;;;;;;;2.25;2.25;;;;;22.63;49.12;101200.16;4993182;28;8841;-65
2022/06/30 09:24:59;;;;;;;;;1.25;1.25;;;;;22.68;49.65;101216.63;4974587;28;8942;-67
2022/06/30 09:27:29;;;;;;;;;2.00;2.00;;;;;22.75;49.24;101204.59;4992874;28;8966;-66
2022/06/30 09:30:03;;;;;;;;;1.75;1.00;;;;;22.79;48.98;101208.47;5011130;28;8866;-66
2022/06/30 09:33:06;;;;;;;;;1.25;1.25;;;;;22.86;49.06;101200.81;5011255;28;8904;-66
2022/06/30 09:35:36;;;;;;;;;2.25;2.25;;;;;22.92;49.22;101205.25;5010087;28;8810;-66
2022/06/30 09:38:12;;;;;;;;;1.75;1.00;;;;;23.00;48.78;101218.47;5011210;28;8818;-66
2022/06/30 09:43:44;;;;;;;;;1.00;1.00;;;;;23.04;48.21;101213.28;4992501;28;8841;-66
2022/06/30 09:46:11;;;;;;;;;2.00;2.00;;;;;23.08;49.18;101217.94;4991030;28;8836;-66
2022/06/30 09:48:40;;;;;;;;;2.00;1.00;;;;;23.13;48.58;101220.75;5002529;28;8814;-66
2022/06/30 09:51:06;;;;;;;;;2.00;2.00;;;;;23.17;48.63;101221.84;5009895;28;8876;-66
2022/06/30 09:53:33;;;;;;;;;1.00;1.00;;;;;23.24;48.51;101221.59;4996100;28;8886;-66
2022/06/30 09:56:14;;;;;;;;;4.00;1.00;;;;;23.28;48.57;101213.63;4990994;28;8911;-66
2022/06/30 09:58:42;;;;;;;;;2.25;2.00;;;;;23.28;48.34;101230.94;5002285;28;8833;-66
2022/06/30 10:01:10;;;;;;;;;1.00;1.00;;;;;23.32;49.01;101233.97;5010343;28;8912;-66
2022/06/30 10:03:59;;;;;;;;;1.25;1.00;;;;;23.35;48.89;101234.25;5010052;28;8842;-66
2022/06/30 10:06:27;;;;;;;;;1.25;1.00;;;;;23.44;49.07;101235.38;5004508;28;8848;-65
2022/06/30 10:08:55;;;;;;;;;3.00;3.00;;;;;23.44;49.21;101242.81;5004277;28;8833;-66
2022/06/30 10:11:24;;;;;;;;;1.75;1.75;;;;;23.48;49.22;101237.59;5010423;28;8838;-67
2022/06/30 10:13:51;;;;;;;;;1.50;1.25;;;;;23.52;49.04;101238.69;5010269;28;8830;-65
2022/06/30 10:16:21;;;;;;;;;1.25;1.25;;;;;23.45;48.18;101236.19;4976731;28;8928;-66
2022/06/30 10:18:48;;;;;;;;;1.25;1.00;;;;;23.40;48.78;101236.19;4997713;28;8859;-66
2022/06/30 10:21:16;;;;;;;;;1.75;1.75;;;;;23.39;48.70;101240.03;5008967;28;9699;-66
2022/06/30 10:23:43;;;;;;;;;1.00;1.00;;;;;23.42;49.00;101243.09;5010370;28;8846;-66
2022/06/30 10:27:12;;;;;;;;;1.00;1.00;;;;;23.46;49.07;101246.13;5010381;28;8838;-66
2022/06/30 10:28:56;;;;;;;;;1.00;1.00;;;;;23.52;48.16;101242.28;4996316;28;9673;-66
2022/06/30 10:31:29;;;;;;;;;1.00;1.00;;;;;23.51;48.07;101239.81;4989822;28;8885;-65
2022/06/30 10:34:07;;;;;;;;;0.75;0.75;;;;;23.48;48.10;101241.16;4998903;28;8830;-66
2022/06/30 10:36:59;;;;;;;;;0.75;0.75;;;;;23.56;48.58;101245.31;4993681;28;9560;-65
2022/06/30 10:39:43;;;;;;;;;0.25;0.25;;;;;23.60;47.76;101249.16;5007615;28;8861;-66
2022/06/30 10:42:10;;;;;;;;;0.00;0.00;;;;;23.66;47.68;101239.88;5010491;28;8826;-66
2022/06/30 10:44:37;;;;;;;;;0.00;0.00;;;;;23.71;47.83;101245.38;5010217;28;8849;-66
2022/06/30 10:47:06;;;;;;;;;0.00;0.00;;;;;23.68;47.46;101254.97;5010182;28;9666;-66
2022/06/30 10:49:51;;;;;;;;;0.00;0.00;;;;;23.63;47.48;101254.94;5000919;28;8858;-66
2022/06/30 10:52:23;;;;;;;;;1.00;1.00;;;;;23.58;47.33;101246.69;5010347;28;8848;-66
2022/06/30 10:54:59;;;;;;;;;1.50;1.50;;;;;23.48;47.25;101246.66;4990659;28;8848;-66
2022/06/30 10:57:25;;;;;;;;;0.00;0.00;;;;;23.47;47.80;101244.19;4990609;28;8860;-66
2022/06/30 10:59:52;;;;;;;;;1.00;1.00;;;;;23.54;48.12;101250.25;4990737;28;8967;-66
2022/06/30 11:02:26;;;;;;;;;0.75;0.75;;;;;23.52;47.85;101247.78;4991245;28;8848;-66
2022/06/30 11:05:27;;;;;;;;;0.00;0.00;;;;;23.59;47.66;101245.59;5009643;28;8960;-66
2022/06/30 11:07:54;;;;;;;;;2.00;1.50;;;;;23.65;48.03;101247.28;4949291;29;8819;-66
2022/06/30 11:10:21;;;;;;;;;1.00;0.75;;;;;23.65;47.38;101244.53;4997847;28;8841;-66
2022/06/30 11:12:47;;;;;;;;;1.00;1.00;;;;;23.69;47.50;101242.88;5009374;28;8892;-67
2022/06/30 11:15:14;;;;;;;;;1.50;1.00;;;;;23.75;47.57;101248.41;5012357;28;8840;-66
2022/06/30 11:17:41;;;;;;;;;0.25;0.00;;;;;23.76;47.20;101245.38;5001308;28;8839;-67
2022/06/30 11:20:14;;;;;;;;;0.75;0.75;;;;;23.83;47.63;101237.69;4994241;28;8871;-67
2022/06/30 11:22:43;;;;;;;;;0.00;0.00;;;;;23.94;47.63;101241.25;4993957;28;8924;-67
2022/06/30 11:27:17;;;;;;;;;0.00;0.00;;;;;23.89;46.78;101247.59;4993987;28;8966;-66
2022/06/30 11:28:01;;;;;;;;;0.25;0.25;;;;;23.90;47.22;101243.75;4993479;28;9002;-67
2022/06/30 11:30:30;;;;;;;;;0.00;0.00;;;;;24.01;47.18;101239.06;4996921;28;8927;-66
2022/06/30 11:32:58;;;;;;;;;0.25;0.25;;;;;24.08;46.75;101234.13;5000115;28;8871;-67
2022/06/30 11:35:26;;;;;;;;;1.00;1.00;;;;;24.08;46.78;101249.81;4993741;28;8871;-66
2022/06/30 11:37:52;;;;;;;;;0.25;0.25;;;;;24.07;46.81;101246.25;4993341;28;8836;-66
2022/06/30 11:40:19;;;;;;;;;1.33;1.00;;;;;24.00;47.04;101239.34;4993683;28;8863;-66
2022/06/30 11:42:45;;;;;;;;;0.00;0.00;;;;;23.97;47.02;101248.97;4993617;28;8836;-67
2022/06/30 11:45:19;;;;;;;;;0.50;0.50;;;;;24.02;46.48;101242.66;5003571;28;8830;-67
2022/06/30 11:47:53;;;;;;;;;0.25;0.00;;;;;24.03;46.41;101236.88;5011316;28;8873;-66
2022/06/30 11:50:22;;;;;;;;;1.00;1.00;;;;;24.03;46.46;101236.88;5012979;28;8846;-66
2022/06/30 11:52:53;;;;;;;;;1.00;1.00;;;;;23.98;46.58;101239.63;5012357;28;8895;-65